KHUL/HUL METAR and TAF weather

Enter ICAO airport designator
Station Type Date Time Source
KHUL METAR 2021/04/13 22:53 UTC NOAA

KHUL 132253Z AUTO 08009KT 10SM CLR 10/M01 A3004 RMK AO2 SLP176 T01001011


Station Type Date Time Source
KHUL Decoded METAR 2021/04/13 22:53 UTC NOAA

HOULTON INT'L AIRPORT, ME, United States (KHUL) 46-07N 067-48W 150M
Apr 13, 2021 - 06:53 PM EDT / 2021.04.13 2253 UTC
Wind: from the E (080 degrees) at 10 MPH (9 KT):0
Visibility: 10 mile(s):0
Sky conditions: clear
Temperature: 50.0 F (10.0 C)
Dew Point: 30.0 F (-1.1 C)
Relative Humidity: 45%
Pressure (altimeter): 30.04 in. Hg (1017 hPa)
ob: KHUL 132253Z AUTO 08009KT 10SM CLR 10/M01 A3004 RMK AO2 SLP176 T01001011
cycle: 23

Station Type Date Time Source
KHUL TAF 2021/04/13 18:27 UTC NOAA

TAF KHUL 131724Z 1318/1418 03009KT P6SM BKN035
FM132200 04012G18KT P6SM SCT035
FM140400 04004KT P6SM SCT020

Example: see airport list